Time;durP1;ratioP1;P1;durP2;ratioP2;P2;SDS_P1;SDS_P2;PMS_P1;PMS_P2;Temp;Humidity;BMP_temperature;BMP_pressure;BME280_temperature;BME280_humidity;BME280_pressure;Samples;Min_cycle;Max_cycle;Signal;HPM_P1;HPM_P2
2021/11/27 00:02:15;;;;;;;1.35;0.40;;;;;;;-0.22;70.50;97871.06;5112648;28;20043;-75
2021/11/27 00:04:41;;;;;;;0.47;0.47;;;;;;;-0.21;70.45;97872.75;5113383;28;20391;-75
2021/11/27 00:07:07;;;;;;;0.43;0.43;;;;;;;-0.24;70.64;97879.34;5112830;28;20044;-74
2021/11/27 00:09:33;;;;;;;0.30;0.30;;;;;;;-0.25;70.69;97871.47;5112694;28;20043;-74
2021/11/27 00:11:59;;;;;;;0.50;0.50;;;;;;;-0.26;70.67;97872.50;5112941;28;20048;-75
2021/11/27 00:14:25;;;;;;;0.32;0.32;;;;;;;-0.26;70.69;97870.63;5113017;28;20486;-74
2021/11/27 00:16:51;;;;;;;0.30;0.30;;;;;;;-0.24;70.59;97875.84;5112746;28;20039;-75
2021/11/27 00:19:17;;;;;;;0.38;0.38;;;;;;;-0.24;70.59;97884.75;5114051;28;20047;-75
2021/11/27 00:21:44;;;;;;;0.35;0.35;;;;;;;-0.23;70.60;97885.63;5115381;28;20043;-75
2021/11/27 00:24:11;;;;;;;0.40;0.40;;;;;;;-0.21;70.48;97894.34;5114535;28;20047;-76
2021/11/27 00:26:36;;;;;;;4.03;0.65;;;;;;;-0.23;70.48;97881.03;5113632;28;20077;-76
2021/11/27 00:29:03;;;;;;;0.30;0.30;;;;;;;-0.24;70.54;97882.06;5113921;28;20118;-77
2021/11/27 00:31:29;;;;;;;0.57;0.43;;;;;;;-0.24;70.52;97884.75;5114322;28;20043;-76
2021/11/27 00:33:57;;;;;;;0.60;0.60;;;;;;;-0.23;70.58;97883.75;5117899;28;20051;-76
2021/11/27 00:36:24;;;;;;;0.40;0.40;;;;;;;-0.24;70.73;97889.31;5116995;28;20043;-75
2021/11/27 00:38:51;;;;;;;0.47;0.47;;;;;;;-0.24;70.71;97878.53;5116803;28;20039;-77
2021/11/27 00:41:18;;;;;;;0.30;0.30;;;;;;;-0.23;70.70;97897.22;5116739;28;20047;-77
2021/11/27 00:43:45;;;;;;;0.80;0.40;;;;;;;-0.26;70.65;97881.41;5116895;28;20049;-75
2021/11/27 00:46:11;;;;;;;0.40;0.40;;;;;;;-0.24;70.52;97870.44;5116490;28;20345;-72
2021/11/27 00:48:37;;;;;;;0.40;0.40;;;;;;;-0.24;70.44;97889.31;5116686;28;20035;-73
2021/11/27 00:51:08;;;;;;;0.30;0.30;;;;;;;-0.23;70.45;97837.88;5116631;28;20044;-74
2021/11/27 00:53:35;;;;;;;0.93;0.80;;;;;;;-0.27;70.61;97878.91;5117078;28;20039;-73
2021/11/27 00:56:01;;;;;;;0.30;0.30;;;;;;;-0.31;70.60;97873.06;5118213;28;20108;-73
2021/11/27 00:58:27;;;;;;;0.45;0.40;;;;;;;-0.30;70.62;97880.13;5117714;28;20039;-74
2021/11/27 01:01:05;;;;;;;1.35;1.33;;;;;;;-0.33;70.73;97875.09;5116518;28;20402;-74
2021/11/27 01:03:34;;;;;;;0.40;0.40;;;;;;;-0.34;70.66;97875.28;5116109;28;20042;-75
2021/11/27 01:06:02;;;;;;;0.30;0.30;;;;;;;-0.37;70.50;97869.25;5116468;28;20493;-73
2021/11/27 01:08:29;;;;;;;0.30;0.30;;;;;;;-0.37;70.65;97852.22;5116133;28;20073;-74
2021/11/27 01:11:04;;;;;;;0.45;0.40;;;;;;;-0.38;70.78;97872.16;5116167;28;20490;-73
2021/11/27 01:13:31;;;;;;;0.55;0.43;;;;;;;-0.41;70.77;97870.66;5116177;28;20032;-74
2021/11/27 01:15:59;;;;;;;0.30;0.30;;;;;;;-0.45;70.88;97863.97;5116386;28;20529;-73
2021/11/27 01:18:25;;;;;;;0.30;0.30;;;;;;;-0.47;70.85;97871.41;5115914;28;20043;-75
2021/11/27 01:20:55;;;;;;;0.30;0.30;;;;;;;-0.49;70.97;97865.34;5097989;28;20043;-74
2021/11/27 01:23:22;;;;;;;0.25;0.25;;;;;;;-0.47;70.86;97832.81;5099174;28;20044;-73
2021/11/27 01:25:49;;;;;;;0.40;0.40;;;;;;;-0.47;70.80;97866.03;5117467;28;20051;-73
2021/11/27 01:28:17;;;;;;;0.30;0.30;;;;;;;-0.46;70.85;97862.28;5116270;28;20458;-74
2021/11/27 01:30:49;;;;;;;1.45;0.82;;;;;;;-0.47;70.84;97870.56;5115889;28;20044;-73
2021/11/27 01:33:15;;;;;;;0.40;0.40;;;;;;;-0.47;71.01;97852.53;5115308;28;20459;-74
2021/11/27 01:35:41;;;;;;;0.47;0.47;;;;;;;-0.44;70.81;97871.03;5115488;28;20104;-74
2021/11/27 01:38:07;;;;;;;0.30;0.30;;;;;;;-0.45;70.80;97857.75;5115569;28;20171;-72
2021/11/27 01:40:35;;;;;;;3.65;0.63;;;;;;;-0.46;70.85;97848.78;5115563;28;20417;-74
2021/11/27 01:43:01;;;;;;;0.30;0.30;;;;;;;-0.49;71.05;97878.00;5116708;28;20045;-73
2021/11/27 01:45:27;;;;;;;0.50;0.50;;;;;;;-0.52;71.06;97868.44;5123058;28;20054;-74
2021/11/27 01:48:01;;;;;;;0.30;0.30;;;;;;;-0.52;70.97;97857.63;5116256;28;20044;-74
2021/11/27 01:50:31;;;;;;;0.40;0.40;;;;;;;-0.52;71.09;97863.03;5116538;28;20035;-72
2021/11/27 01:52:57;;;;;;;0.30;0.30;;;;;;;-0.51;71.12;97883.59;5116147;28;20040;-73
2021/11/27 01:55:23;;;;;;;0.30;0.30;;;;;;;-0.51;70.94;97891.69;5117130;28;20027;-73
2021/11/27 01:57:49;;;;;;;0.50;0.50;;;;;;;-0.55;71.15;97879.59;5115488;28;20108;-73
2021/11/27 02:00:21;;;;;;;0.50;0.50;;;;;;;-0.56;71.13;97894.94;5115217;28;20043;-73
2021/11/27 02:02:48;;;;;;;0.30;0.30;;;;;;;-0.56;71.07;97878.75;5114898;28;20489;-72
2021/11/27 02:05:14;;;;;;;0.40;0.40;;;;;;;-0.54;71.02;97900.97;5115000;28;20112;-73
2021/11/27 02:07:41;;;;;;;0.50;0.50;;;;;;;-0.50;71.00;97901.44;5114871;28;20035;-73
2021/11/27 02:10:10;;;;;;;0.73;0.73;;;;;;;-0.49;71.16;97905.81;5116519;28;20047;-72
2021/11/27 02:12:40;;;;;;;0.40;0.40;;;;;;;-0.49;71.21;97886.94;5116965;28;20040;-74
2021/11/27 02:15:07;;;;;;;0.30;0.30;;;;;;;-0.47;71.11;97886.75;5115732;28;20050;-73
2021/11/27 02:17:33;;;;;;;0.40;0.40;;;;;;;-0.45;71.35;97885.53;5114933;28;20236;-71
2021/11/27 02:19:59;;;;;;;0.30;0.30;;;;;;;-0.42;71.06;97892.41;5114716;28;20039;-71
2021/11/27 02:22:25;;;;;;;0.40;0.40;;;;;;;-0.43;71.09;97877.25;5115180;28;20126;-73
2021/11/27 02:24:51;;;;;;;0.40;0.40;;;;;;;-0.41;70.98;97902.19;5114621;28;20520;-71
2021/11/27 02:27:18;;;;;;;0.80;0.52;;;;;;;-0.41;71.11;97889.53;5113461;28;20137;-72
2021/11/27 02:29:45;;;;;;;0.50;0.50;;;;;;;-0.41;71.08;97900.31;5113419;28;20326;-72
2021/11/27 02:32:11;;;;;;;0.30;0.30;;;;;;;-0.40;70.99;97891.22;5095494;28;20414;-74
2021/11/27 02:34:37;;;;;;;0.30;0.30;;;;;;;-0.39;71.08;97897.44;5114947;28;20047;-74
2021/11/27 02:37:05;;;;;;;0.30;0.30;;;;;;;-0.39;71.02;97898.25;5114346;28;20053;-72
2021/11/27 02:39:32;;;;;;;0.40;0.40;;;;;;;-0.37;71.04;97901.63;5114082;28;20398;-72
2021/11/27 02:41:59;;;;;;;0.85;0.85;;;;;;;-0.34;71.08;97900.41;5114388;28;20040;-73
2021/11/27 02:44:29;;;;;;;0.30;0.30;;;;;;;-0.32;70.84;97906.47;5096781;28;20077;-74
2021/11/27 02:46:55;;;;;;;0.30;0.30;;;;;;;-0.32;70.93;97898.38;5114751;28;20043;-74
2021/11/27 02:49:21;;;;;;;0.30;0.30;;;;;;;-0.29;71.09;97902.56;5097163;28;20024;-74
2021/11/27 02:51:48;;;;;;;0.32;0.32;;;;;;;-0.30;70.99;97903.56;5116654;28;20031;-74
2021/11/27 02:54:14;;;;;;;0.40;0.40;;;;;;;-0.32;71.12;97900.22;5079898;28;20048;-76
2021/11/27 02:56:41;;;;;;;0.30;0.30;;;;;;;-0.32;71.27;97914.56;5113825;28;20066;-72
2021/11/27 02:59:16;;;;;;;0.30;0.30;;;;;;;-0.29;71.20;97907.94;5100239;28;20047;-72
2021/11/27 03:01:44;;;;;;;0.65;0.57;;;;;;;-0.29;71.08;97913.34;5093095;28;20558;-72
2021/11/27 03:04:10;;;;;;;0.30;0.30;;;;;;;-0.25;70.99;97898.44;5094667;28;20051;-70
2021/11/27 03:06:36;;;;;;;0.40;0.40;;;;;;;-0.25;70.88;97906.53;5094244;28;20036;-74
2021/11/27 03:09:05;;;;;;;0.30;0.30;;;;;;;-0.25;71.04;97902.00;5096934;28;20040;-73
2021/11/27 03:11:31;;;;;;;0.38;0.38;;;;;;;-0.23;70.92;97920.69;5095104;28;20047;-74
2021/11/27 03:13:57;;;;;;;0.30;0.30;;;;;;;-0.22;71.08;97933.13;5095531;28;20040;-75
2021/11/27 03:16:28;;;;;;;0.55;0.52;;;;;;;-0.22;70.87;97933.97;5076590;28;20044;-75
2021/11/27 03:18:55;;;;;;;0.52;0.50;;;;;;;-0.21;70.98;97940.22;5078253;28;20051;-72
2021/11/27 03:21:21;;;;;;;0.50;0.50;;;;;;;-0.23;70.99;97940.41;5095237;28;20063;-69
2021/11/27 03:23:47;;;;;;;0.57;0.57;;;;;;;-0.20;71.07;97941.88;5093610;28;20533;-73
2021/11/27 03:26:13;;;;;;;0.50;0.50;;;;;;;-0.20;70.75;97948.13;5093781;28;20055;-69
2021/11/27 03:28:39;;;;;;;0.30;0.30;;;;;;;-0.18;70.89;97947.91;5092946;28;20040;-70
2021/11/27 03:31:05;;;;;;;1.35;0.43;;;;;;;-0.18;70.73;97953.31;5092421;28;20071;-68
2021/11/27 03:33:31;;;;;;;0.30;0.30;;;;;;;-0.16;70.82;97945.03;5092116;28;20070;-69
2021/11/27 03:35:57;;;;;;;0.30;0.30;;;;;;;-0.15;70.73;97954.81;5092231;28;20039;-69
2021/11/27 03:38:24;;;;;;;0.25;0.25;;;;;;;-0.17;70.73;97938.00;5092216;28;20040;-69
2021/11/27 03:40:51;;;;;;;0.57;0.57;;;;;;;-0.18;70.94;97956.03;5092516;28;20123;-68
2021/11/27 03:43:17;;;;;;;0.38;0.38;;;;;;;-0.21;70.90;97957.25;5092354;28;20048;-68
2021/11/27 03:45:43;;;;;;;0.73;0.73;;;;;;;-0.20;70.98;97958.91;5092425;28;20418;-69
2021/11/27 03:48:15;;;;;;;0.30;0.30;;;;;;;-0.18;70.98;97966.81;5093447;28;20047;-70
2021/11/27 03:50:48;;;;;;;0.30;0.30;;;;;;;-0.19;71.00;97959.75;5093823;28;20044;-71
2021/11/27 03:53:30;;;;;;;0.45;0.45;;;;;;;-0.18;70.94;97969.50;5092786;28;20040;-69
2021/11/27 03:55:57;;;;;;;0.30;0.30;;;;;;;-0.20;71.08;97960.78;5092569;28;20453;-64
2021/11/27 03:58:23;;;;;;;1.13;1.02;;;;;;;-0.17;70.85;97973.06;5092460;28;20046;-69
2021/11/27 04:00:51;;;;;;;0.47;0.47;;;;;;;-0.16;70.83;97975.56;5092233;28;20123;-69
2021/11/27 04:03:18;;;;;;;0.35;0.35;;;;;;;-0.16;71.05;97950.44;5091920;28;20545;-69
2021/11/27 04:05:48;;;;;;;0.55;0.43;;;;;;;-0.14;70.84;97967.28;5091742;28;20040;-67
2021/11/27 04:08:15;;;;;;;0.30;0.30;;;;;;;-0.14;70.66;97981.59;5085496;28;20438;-69
2021/11/27 04:10:41;;;;;;;0.22;0.22;;;;;;;-0.12;70.91;97974.16;5079990;28;20042;-69
2021/11/27 04:13:07;;;;;;;0.30;0.30;;;;;;;-0.14;70.65;97976.22;5084015;28;20032;-70
2021/11/27 04:15:33;;;;;;;0.50;0.45;;;;;;;-0.13;70.56;97983.28;5074029;28;20040;-68
2021/11/27 04:17:59;;;;;;;2.75;0.55;;;;;;;-0.12;70.58;97987.63;5085946;28;20089;-70
2021/11/27 04:20:25;;;;;;;0.30;0.30;;;;;;;-0.12;70.60;97984.13;5090920;28;20040;-72
2021/11/27 04:22:51;;;;;;;0.38;0.38;;;;;;;-0.13;70.57;98002.19;5088250;28;20027;-68
2021/11/27 04:25:16;;;;;;;0.40;0.40;;;;;;;-0.13;70.56;98009.41;5090644;28;20051;-71
2021/11/27 04:27:43;;;;;;;0.30;0.30;;;;;;;-0.12;70.63;98028.13;5090800;28;20127;-69
2021/11/27 04:30:14;;;;;;;0.40;0.40;;;;;;;-0.12;70.70;98011.94;5072811;28;20035;-69
2021/11/27 04:32:41;;;;;;;0.35;0.35;;;;;;;-0.11;70.61;98024.41;5090291;28;20114;-69
2021/11/27 04:35:07;;;;;;;0.40;0.40;;;;;;;-0.06;70.58;98019.31;5090802;28;20502;-67
2021/11/27 04:37:33;;;;;;;0.30;0.30;;;;;;;-0.06;70.46;98022.00;5090324;28;20482;-69
2021/11/27 04:39:59;;;;;;;0.30;0.30;;;;;;;-0.10;70.51;98034.19;5090447;28;20032;-71
2021/11/27 04:42:25;;;;;;;0.30;0.30;;;;;;;-0.14;70.83;98024.78;5090846;28;20032;-68
2021/11/27 04:44:51;;;;;;;0.45;0.45;;;;;;;-0.15;70.84;98044.69;5091603;28;20047;-69
2021/11/27 04:47:17;;;;;;;0.30;0.30;;;;;;;-0.16;70.61;98044.88;5091552;28;20047;-68
2021/11/27 04:49:43;;;;;;;0.30;0.30;;;;;;;-0.17;70.71;98046.75;5091713;28;20131;-68
2021/11/27 04:52:09;;;;;;;0.40;0.40;;;;;;;-0.15;70.94;98043.84;5073858;28;21236;-67
2021/11/27 04:54:36;;;;;;;0.20;0.20;;;;;;;-0.17;70.98;98033.25;5092040;28;20111;-67
2021/11/27 04:57:02;;;;;;;0.30;0.30;;;;;;;-0.18;70.84;98053.16;5093412;28;20039;-68
2021/11/27 04:59:28;;;;;;;0.30;0.30;;;;;;;-0.19;70.79;98065.81;5094351;28;20038;-68
2021/11/27 05:01:54;;;;;;;0.90;0.47;;;;;;;-0.20;70.96;98060.59;5091802;28;20032;-69
2021/11/27 05:04:20;;;;;;;0.30;0.30;;;;;;;-0.20;70.94;98039.03;5112583;28;20060;-67
2021/11/27 05:06:46;;;;;;;0.35;0.35;;;;;;;-0.18;70.85;98042.34;5105491;28;20040;-69
2021/11/27 05:09:12;;;;;;;0.40;0.40;;;;;;;-0.20;70.94;98066.81;5106336;28;20040;-68
2021/11/27 05:11:38;;;;;;;0.30;0.30;;;;;;;-0.19;70.91;98032.59;5092689;28;20036;-68
2021/11/27 05:14:04;;;;;;;0.73;0.73;;;;;;;-0.17;70.80;98065.63;5074005;28;20044;-67
2021/11/27 05:16:32;;;;;;;2.40;0.82;;;;;;;-0.16;70.74;98059.22;5091998;28;20040;-69
2021/11/27 05:18:58;;;;;;;0.43;0.40;;;;;;;-0.17;70.72;98073.72;5094959;28;20052;-69
2021/11/27 05:21:24;;;;;;;0.30;0.30;;;;;;;-0.16;70.50;98086.19;5095487;28;20036;-66
2021/11/27 05:23:51;;;;;;;0.38;0.38;;;;;;;-0.17;70.77;98076.41;5095229;28;20071;-68
2021/11/27 05:26:16;;;;;;;0.30;0.30;;;;;;;-0.15;70.56;98095.13;5108981;28;20073;-68
2021/11/27 05:28:43;;;;;;;0.40;0.40;;;;;;;-0.14;70.52;98105.72;5109100;28;20607;-71
2021/11/27 05:31:12;;;;;;;0.30;0.30;;;;;;;-0.11;70.43;98091.88;5093421;28;20046;-73
2021/11/27 05:36:11;;;;;;;0.25;0.25;;;;;;;-0.05;70.17;98091.13;5101846;28;20039;-71
2021/11/27 05:38:40;;;;;;;0.30;0.30;;;;;;;-0.04;70.10;98098.22;5115517;28;20039;-72
2021/11/27 05:41:06;;;;;;;0.30;0.30;;;;;;;-0.02;70.21;98112.34;5097241;28;20035;-71
2021/11/27 05:43:33;;;;;;;0.60;0.60;;;;;;;0.02;70.19;98109.31;5116343;28;20398;-64
2021/11/27 05:45:59;;;;;;;1.17;1.13;;;;;;;0.03;70.11;98116.34;5107828;28;20050;-61
2021/11/27 05:48:25;;;;;;;0.30;0.30;;;;;;;0.02;70.22;98122.81;5111403;28;20035;-63
2021/11/27 05:50:51;;;;;;;1.08;0.93;;;;;;;0.02;70.46;98117.41;5106288;28;20525;-69
2021/11/27 05:53:18;;;;;;;0.50;0.50;;;;;;;0.03;70.29;98122.63;5094865;28;20039;-71
2021/11/27 05:55:49;;;;;;;0.82;0.82;;;;;;;0.07;70.34;98128.47;5094459;28;20044;-71
2021/11/27 05:58:18;;;;;;;0.40;0.40;;;;;;;0.06;70.36;98126.78;5076483;28;20040;-71
2021/11/27 06:00:46;;;;;;;0.40;0.40;;;;;;;0.05;70.29;98130.53;5094945;28;20387;-70
2021/11/27 06:03:12;;;;;;;0.40;0.40;;;;;;;0.03;70.40;98127.16;5094434;28;20044;-71
2021/11/27 06:05:37;;;;;;;0.47;0.47;;;;;;;0.03;70.58;98127.16;5111545;28;20568;-74
2021/11/27 06:08:04;;;;;;;0.30;0.30;;;;;;;0.01;70.56;98129.22;5115153;28;20040;-71
2021/11/27 06:10:30;;;;;;;0.50;0.50;;;;;;;0.01;70.52;98129.22;5096760;28;20414;-71
2021/11/27 06:12:56;;;;;;;1.13;0.75;;;;;;;0.02;70.65;98134.44;5116088;28;20044;-73
2021/11/27 06:15:22;;;;;;;0.20;0.20;;;;;;;0.02;70.56;98147.09;5116076;28;20123;-71
2021/11/27 06:17:48;;;;;;;0.20;0.20;;;;;;;-0.01;70.43;98141.03;5097761;28;20054;-70
2021/11/27 06:20:14;;;;;;;0.30;0.30;;;;;;;0.01;70.47;98148.09;5114966;28;20047;-70
2021/11/27 06:22:40;;;;;;;0.40;0.40;;;;;;;0.01;70.44;98150.81;5111291;28;20470;-70
2021/11/27 06:25:06;;;;;;;0.30;0.30;;;;;;;-0.01;70.31;98154.53;5093003;28;20052;-69
2021/11/27 06:27:32;;;;;;;2.55;0.40;;;;;;;-0.03;70.66;98145.78;5094289;28;20044;-70
2021/11/27 06:29:58;;;;;;;0.30;0.30;;;;;;;-0.03;70.39;98134.97;5092885;28;20040;-69
2021/11/27 06:32:25;;;;;;;0.73;0.73;;;;;;;-0.04;70.50;98145.97;5114243;28;20040;-70
2021/11/27 06:34:52;;;;;;;0.30;0.30;;;;;;;-0.06;70.46;98148.00;5096156;28;20039;-69
2021/11/27 06:37:21;;;;;;;0.30;0.30;;;;;;;-0.09;70.47;98151.91;5114531;28;20054;-69
2021/11/27 06:39:48;;;;;;;0.50;0.50;;;;;;;-0.10;70.51;98163.72;5114669;28;20162;-68
2021/11/27 06:42:15;;;;;;;0.30;0.30;;;;;;;-0.10;70.50;98163.72;5114615;28;20067;-69
2021/11/27 06:44:47;;;;;;;0.45;0.45;;;;;;;-0.12;70.50;98164.91;5114976;28;20401;-69
2021/11/27 06:47:17;;;;;;;0.30;0.30;;;;;;;-0.13;70.56;98172.19;5114866;28;20050;-70
2021/11/27 06:49:44;;;;;;;0.30;0.30;;;;;;;-0.13;70.39;98177.56;5114484;28;20450;-70
2021/11/27 06:52:13;;;;;;;0.40;0.40;;;;;;;-0.13;70.58;98174.88;5114589;28;20028;-70
2021/11/27 06:54:40;;;;;;;0.85;0.52;;;;;;;-0.15;70.53;98184.16;5096060;28;20396;-67
2021/11/27 06:57:06;;;;;;;0.60;0.60;;;;;;;-0.16;70.69;98186.03;5114536;28;20047;-69
2021/11/27 06:59:32;;;;;;;0.30;0.30;;;;;;;-0.14;70.85;98183.16;5114333;28;20355;-69
2021/11/27 07:01:58;;;;;;;0.50;0.50;;;;;;;-0.13;70.60;98182.97;5113468;28;20043;-69
2021/11/27 07:04:24;;;;;;;0.38;0.38;;;;;;;-0.11;70.64;98182.78;5113977;28;20039;-70
2021/11/27 07:06:50;;;;;;;0.50;0.50;;;;;;;-0.10;70.64;98182.59;5114013;28;20130;-70
2021/11/27 07:09:16;;;;;;;0.40;0.40;;;;;;;-0.08;70.67;98185.13;5114023;28;20050;-71
2021/11/27 07:11:43;;;;;;;0.45;0.43;;;;;;;-0.08;70.64;98198.63;5114282;28;20098;-70
2021/11/27 07:14:09;;;;;;;0.45;0.45;;;;;;;-0.07;70.65;98187.63;5113773;28;20039;-71
2021/11/27 07:16:35;;;;;;;0.30;0.30;;;;;;;-0.05;70.80;98187.47;5114448;28;20400;-72
2021/11/27 07:19:01;;;;;;;0.63;0.63;;;;;;;-0.06;70.75;98194.72;5114077;28;20118;-71
2021/11/27 07:21:26;;;;;;;0.50;0.50;;;;;;;-0.07;70.67;98187.63;5114085;28;20040;-71
2021/11/27 07:23:52;;;;;;;0.30;0.30;;;;;;;-0.09;70.81;98199.63;5114124;28;20128;-69
2021/11/27 07:26:19;;;;;;;0.40;0.40;;;;;;;-0.12;70.90;98195.44;5113942;28;20055;-70
2021/11/27 07:28:45;;;;;;;0.30;0.30;;;;;;;-0.14;71.05;98196.66;5093507;28;20550;-75
2021/11/27 07:31:12;;;;;;;0.30;0.30;;;;;;;-0.15;70.88;98192.25;5092021;28;20111;-72
2021/11/27 07:33:38;;;;;;;0.45;0.45;;;;;;;-0.18;71.16;98196.16;5075496;28;20048;-74
2021/11/27 07:36:04;;;;;;;0.30;0.30;;;;;;;-0.20;71.08;98192.81;5071079;28;20044;-71
2021/11/27 07:38:31;;;;;;;0.40;0.40;;;;;;;-0.20;71.22;98185.56;5090686;28;20118;-71
2021/11/27 07:40:58;;;;;;;1.67;0.70;;;;;;;-0.20;71.18;98179.31;5091433;28;20032;-71
2021/11/27 07:43:24;;;;;;;0.40;0.40;;;;;;;-0.24;71.15;98181.53;5091634;28;20063;-70
2021/11/27 07:45:50;;;;;;;0.50;0.50;;;;;;;-0.27;71.18;98205.34;5084228;28;20081;-70
2021/11/27 07:48:16;;;;;;;0.30;0.30;;;;;;;-0.28;71.28;98212.63;5079982;28;20089;-69
2021/11/27 07:50:42;;;;;;;0.50;0.50;;;;;;;-0.28;71.23;98191.03;5082402;28;20108;-72
2021/11/27 07:53:07;;;;;;;0.50;0.50;;;;;;;-0.25;71.04;98206.00;5082030;28;20074;-72
2021/11/27 07:55:34;;;;;;;0.50;0.50;;;;;;;-0.24;70.96;98204.97;5079679;28;20131;-70
2021/11/27 07:58:00;;;;;;;0.63;0.63;;;;;;;-0.28;70.98;98201.81;5075692;28;20491;-71
2021/11/27 08:00:25;;;;;;;0.32;0.32;;;;;;;-0.29;71.06;98204.69;5078013;28;20135;-70
2021/11/27 08:02:52;;;;;;;0.30;0.30;;;;;;;-0.33;70.90;98214.16;5084232;28;20181;-69
2021/11/27 08:05:17;;;;;;;1.08;0.60;;;;;;;-0.34;70.99;98213.31;5074376;28;20418;-71
2021/11/27 08:07:46;;;;;;;0.30;0.30;;;;;;;-0.34;70.91;98223.28;5077540;28;20049;-74
2021/11/27 08:10:14;;;;;;;0.73;0.45;;;;;;;-0.38;71.02;98218.22;5078907;28;20064;-71
2021/11/27 08:12:40;;;;;;;0.30;0.30;;;;;;;-0.40;71.01;98231.06;5077324;28;20050;-72
2021/11/27 08:15:07;;;;;;;0.50;0.50;;;;;;;-0.39;70.94;98240.81;5078891;28;20459;-72
2021/11/27 08:17:35;;;;;;;0.50;0.50;;;;;;;-0.40;70.92;98241.00;5081822;28;20134;-70
2021/11/27 08:20:02;;;;;;;1.95;1.05;;;;;;;-0.44;70.96;98245.94;5084821;28;20036;-72
2021/11/27 08:22:28;;;;;;;0.82;0.82;;;;;;;-0.46;70.90;98236.34;5083560;28;20040;-72
2021/11/27 08:24:53;;;;;;;1.35;0.85;;;;;;;-0.47;70.76;98238.19;5083923;28;20106;-70
2021/11/27 08:27:21;;;;;;;1.75;1.05;;;;;;;-0.48;70.92;98232.97;5085018;28;20040;-70
2021/11/27 08:29:46;;;;;;;0.70;0.70;;;;;;;-0.49;70.86;98240.22;5082989;28;20042;-71
2021/11/27 08:32:52;;;;;;;0.30;0.30;;;;;;;-0.50;70.98;98246.66;5080455;28;20417;-71
2021/11/27 08:35:18;;;;;;;0.30;0.30;;;;;;;-0.52;70.81;98258.63;5087153;28;20127;-73
2021/11/27 08:37:44;;;;;;;0.30;0.30;;;;;;;-0.54;70.69;98250.72;5090589;28;20047;-72
2021/11/27 08:40:11;;;;;;;0.45;0.45;;;;;;;-0.53;70.85;98246.97;5090487;28;20080;-70
2021/11/27 08:42:37;;;;;;;0.30;0.30;;;;;;;-0.55;70.91;98254.41;5090248;28;20509;-72
2021/11/27 08:45:04;;;;;;;0.90;0.57;;;;;;;-0.58;70.98;98250.22;5087894;28;20126;-72
2021/11/27 08:47:30;;;;;;;0.50;0.50;;;;;;;-0.52;70.79;98259.44;5055264;28;20529;-72
2021/11/27 08:49:58;;;;;;;0.45;0.45;;;;;;;-0.51;70.82;98255.75;5080482;28;20566;-71
2021/11/27 08:52:24;;;;;;;3.83;0.60;;;;;;;-0.51;70.74;98261.13;5082900;28;20037;-71
2021/11/27 08:54:49;;;;;;;1.23;0.50;;;;;;;-0.53;70.75;98268.56;5084190;28;20025;-71
2021/11/27 08:57:15;;;;;;;0.30;0.30;;;;;;;-0.55;70.81;98276.00;5086263;28;20050;-71
2021/11/27 08:59:41;;;;;;;0.40;0.40;;;;;;;-0.56;70.85;98268.91;5087818;28;20047;-73
2021/11/27 09:02:08;;;;;;;0.60;0.60;;;;;;;-0.56;70.77;98285.09;5090866;28;20043;-74
2021/11/27 09:04:35;;;;;;;0.30;0.30;;;;;;;-0.56;70.75;98287.78;5083459;28;20528;-71
2021/11/27 09:07:02;;;;;;;0.30;0.30;;;;;;;-0.58;70.61;98279.88;5070457;28;20581;-73
2021/11/27 09:09:28;;;;;;;0.30;0.30;;;;;;;-0.61;70.71;98293.72;5086167;28;20068;-74
2021/11/27 09:11:54;;;;;;;0.30;0.30;;;;;;;-0.61;70.84;98288.31;5089586;28;20078;-73
2021/11/27 09:14:20;;;;;;;0.50;0.50;;;;;;;-0.63;70.72;98302.97;5094067;28;20039;-74
2021/11/27 09:16:48;;;;;;;0.50;0.50;;;;;;;-0.66;70.87;98300.66;5094384;28;20482;-72
2021/11/27 09:19:14;;;;;;;0.30;0.30;;;;;;;-0.68;70.90;98289.22;5094058;28;20483;-74
2021/11/27 09:21:40;;;;;;;2.13;0.50;;;;;;;-0.71;70.69;98296.63;5076576;28;20043;-74
2021/11/27 09:24:06;;;;;;;0.50;0.50;;;;;;;-0.73;70.92;98314.84;5095124;28;20063;-73
2021/11/27 09:26:34;;;;;;;0.30;0.30;;;;;;;-0.74;70.99;98310.47;5089827;28;20050;-72
2021/11/27 09:29:00;;;;;;;0.40;0.40;;;;;;;-0.75;70.78;98313.31;5095199;28;20039;-71
2021/11/27 09:31:25;;;;;;;0.30;0.30;;;;;;;-0.74;70.76;98326.66;5094822;28;20047;-72
2021/11/27 09:33:51;;;;;;;0.30;0.30;;;;;;;-0.73;70.80;98327.47;5077294;28;20098;-72
2021/11/27 09:36:20;;;;;;;0.68;0.68;;;;;;;-0.77;70.95;98329.66;5095025;28;20051;-70
2021/11/27 09:38:48;;;;;;;0.40;0.40;;;;;;;-0.78;70.79;98338.78;5094810;28;20055;-72
2021/11/27 09:41:20;;;;;;;4.07;1.05;;;;;;;-0.78;70.87;98340.63;5095207;28;20048;-71
2021/11/27 09:43:49;;;;;;;0.47;0.47;;;;;;;-0.81;70.90;98340.97;5094813;28;20075;-70
2021/11/27 09:46:19;;;;;;;0.80;0.80;;;;;;;-0.82;70.98;98366.28;5100248;28;20102;-69
2021/11/27 09:48:48;;;;;;;1.02;1.02;;;;;;;-0.86;70.87;98344.19;5094470;28;20093;-69
2021/11/27 09:51:15;;;;;;;0.30;0.30;;;;;;;-0.88;71.03;98363.25;5076273;28;20040;-71
2021/11/27 09:53:41;;;;;;;0.57;0.50;;;;;;;-0.88;70.75;98352.47;5095825;28;20093;-71
2021/11/27 09:56:08;;;;;;;0.35;0.35;;;;;;;-0.88;70.80;98378.59;5095466;28;20439;-68
2021/11/27 09:58:34;;;;;;;0.25;0.25;;;;;;;-0.85;70.85;98377.38;5094671;28;20042;-68
2021/11/27 10:01:03;;;;;;;0.40;0.40;;;;;;;-0.85;70.74;98372.84;5094287;28;20028;-70
2021/11/27 10:03:31;;;;;;;0.30;0.30;;;;;;;-0.85;70.70;98371.97;5089485;28;20458;-70
2021/11/27 10:05:57;;;;;;;0.57;0.57;;;;;;;-0.88;70.71;98381.28;5087384;28;20410;-69
2021/11/27 10:08:23;;;;;;;0.57;0.57;;;;;;;-0.89;70.75;98390.38;5093994;28;20059;-71
2021/11/27 10:10:50;;;;;;;2.90;0.73;;;;;;;-0.88;70.73;98392.06;5094315;28;20498;-72
2021/11/27 10:13:20;;;;;;;0.45;0.30;;;;;;;-0.88;70.73;98394.75;5097139;28;20039;-70
2021/11/27 10:15:47;;;;;;;0.68;0.68;;;;;;;-0.92;70.71;98393.41;5105099;28;20035;-69
2021/11/27 10:18:19;;;;;;;0.30;0.30;;;;;;;-0.93;70.89;98402.50;5081650;28;20525;-68
2021/11/27 10:20:45;;;;;;;0.93;0.93;;;;;;;-0.94;70.92;98407.06;5101499;28;20429;-69
2021/11/27 10:23:11;;;;;;;0.30;0.30;;;;;;;-0.95;70.89;98418.00;5076787;28;20040;-66
2021/11/27 10:25:39;;;;;;;0.30;0.30;;;;;;;-1.00;70.93;98420.34;5094307;28;20048;-68
2021/11/27 10:28:12;;;;;;;0.95;0.88;;;;;;;-1.03;71.08;98420.69;5094496;28;20040;-70
2021/11/27 10:30:58;;;;;;;0.30;0.30;;;;;;;-1.06;71.11;98429.97;5093659;28;20059;-72
2021/11/27 10:33:25;;;;;;;0.32;0.32;;;;;;;-1.07;70.96;98442.59;5093619;28;20036;-74
2021/11/27 10:36:01;;;;;;;0.40;0.40;;;;;;;-1.10;70.91;98453.72;5093346;28;20053;-69
2021/11/27 10:38:51;;;;;;;0.30;0.30;;;;;;;-1.13;71.08;98442.47;5083259;28;20117;-67
2021/11/27 10:41:18;;;;;;;0.32;0.32;;;;;;;-1.17;71.11;98450.00;5073603;28;20048;-69
2021/11/27 10:43:58;;;;;;;0.30;0.30;;;;;;;-1.18;71.03;98451.03;5073455;28;20044;-68
2021/11/27 10:46:29;;;;;;;0.30;0.30;;;;;;;-1.19;71.12;98456.56;5073447;28;20044;-68
2021/11/27 10:48:55;;;;;;;0.45;0.45;;;;;;;-1.23;70.94;98456.09;5073701;28;20521;-71
2021/11/27 10:51:22;;;;;;;0.40;0.40;;;;;;;-1.24;71.01;98473.25;5073436;28;20052;-72
2021/11/27 10:53:56;;;;;;;0.30;0.30;;;;;;;-1.25;70.79;98458.94;5073694;28;20041;-71
2021/11/27 10:56:48;;;;;;;0.40;0.40;;;;;;;-1.27;70.88;98471.72;5085271;28;20467;-71
2021/11/27 10:59:16;;;;;;;0.30;0.30;;;;;;;-1.30;70.74;98482.00;5093447;28;20040;-74
2021/11/27 11:02:04;;;;;;;1.02;0.40;;;;;;;-1.29;70.75;98486.38;5092887;28;20044;-69
2021/11/27 11:04:31;;;;;;;0.30;0.30;;;;;;;-1.30;70.67;98484.69;5093222;28;20036;-72
2021/11/27 11:07:35;;;;;;;0.30;0.30;;;;;;;-1.31;70.81;98491.09;5093705;28;20406;-71
2021/11/27 11:13:35;;;;;;;0.20;0.20;;;;;;;-1.32;70.72;98498.34;5093440;28;20046;-72
2021/11/27 11:16:09;;;;;;;0.65;0.65;;;;;;;-1.31;70.57;98499.16;5096338;28;20123;-71
2021/11/27 11:18:35;;;;;;;0.20;0.20;;;;;;;-1.34;70.57;98507.59;5098355;28;20123;-73
2021/11/27 11:21:06;;;;;;;0.35;0.35;;;;;;;-1.38;70.72;98496.31;5110077;28;20051;-74
2021/11/27 11:23:37;;;;;;;0.30;0.30;;;;;;;-1.38;70.74;98481.97;5109410;28;20044;-72
2021/11/27 11:26:28;;;;;;;0.30;0.30;;;;;;;-1.42;70.74;98517.34;5084466;28;20040;-72
2021/11/27 11:28:58;;;;;;;0.32;0.32;;;;;;;-1.43;70.80;98523.75;5077737;28;20028;-72
2021/11/27 11:31:27;;;;;;;0.25;0.25;;;;;;;-1.43;70.72;98518.34;5071883;28;20044;-73
2021/11/27 11:33:56;;;;;;;0.50;0.50;;;;;;;-1.42;70.76;98529.97;5072558;28;20098;-69
2021/11/27 11:36:23;;;;;;;0.68;0.50;;;;;;;-1.37;70.76;98529.47;5053372;28;20388;-70
2021/11/27 11:38:54;;;;;;;0.35;0.35;;;;;;;-1.30;70.71;98527.78;5070784;28;20566;-68
2021/11/27 11:41:22;;;;;;;0.40;0.40;;;;;;;-1.26;70.57;98538.06;5070874;28;20040;-69
2021/11/27 11:43:50;;;;;;;0.40;0.40;;;;;;;-1.25;70.49;98529.00;5070501;28;20141;-67